createdAt,value
2019-05-02T00:02:24.136Z,6.55
2019-05-02T00:04:55.777Z,6.49
2019-05-02T00:07:25.304Z,6.49
2019-05-02T00:09:54.600Z,6.35
2019-05-02T00:12:25.486Z,6.38
2019-05-02T00:14:56.673Z,6.41
2019-05-02T00:17:27.597Z,6.41
2019-05-02T00:19:56.616Z,6.15
2019-05-02T00:22:25.735Z,6.26
2019-05-02T00:24:54.724Z,6.01
2019-05-02T00:27:23.868Z,6.01
2019-05-02T00:29:53.831Z,6.03
2019-05-02T00:32:23.780Z,6.01
2019-05-02T00:34:52.798Z,5.87
2019-05-02T00:37:24.728Z,5.87
2019-05-02T00:39:52.457Z,5.92
2019-05-02T00:42:22.445Z,5.92
2019-05-02T00:44:52.305Z,5.74
2019-05-02T00:47:29.233Z,5.72
2019-05-02T00:49:58.209Z,5.90
2019-05-02T00:52:27.198Z,5.85
2019-05-02T00:54:58.732Z,5.83
2019-05-02T00:57:26.974Z,5.83
2019-05-02T00:59:55.993Z,5.62
2019-05-02T01:02:31.501Z,5.68
2019-05-02T01:05:03.228Z,5.60
2019-05-02T01:07:31.404Z,5.57
2019-05-02T01:10:00.412Z,5.36
2019-05-02T01:12:29.452Z,5.36
2019-05-02T01:14:58.449Z,5.45
2019-05-02T01:17:30.880Z,5.43
2019-05-02T01:19:58.210Z,5.36
2019-05-02T01:22:27.238Z,5.36
2019-05-02T01:24:56.296Z,5.36
2019-05-02T01:27:41.141Z,5.22
2019-05-02T01:30:21.188Z,5.26
2019-05-02T01:33:06.454Z,5.55
2019-05-02T01:36:06.413Z,5.43
2019-05-02T01:38:41.859Z,5.43
2019-05-02T01:41:11.020Z,5.32
2019-05-02T01:43:40.000Z,5.32
2019-05-02T01:46:09.056Z,5.32
2019-05-02T01:48:40.237Z,5.32
2019-05-02T01:51:09.918Z,5.32
2019-05-02T01:53:39.630Z,5.35
2019-05-02T01:56:08.683Z,5.11
2019-05-02T01:58:37.738Z,5.15
2019-05-02T02:01:06.856Z,5.15
2019-05-02T02:03:40.490Z,5.14
2019-05-02T02:06:08.044Z,5.14
2019-05-02T02:08:37.527Z,4.90
2019-05-02T02:11:06.655Z,4.90
2019-05-02T02:13:36.662Z,4.96
2019-05-02T02:16:06.625Z,4.86
2019-05-02T02:18:39.966Z,4.92
2019-05-02T02:21:30.721Z,4.93
2019-05-02T02:24:04.512Z,4.86
2019-05-02T02:26:33.486Z,4.82
2019-05-02T02:29:03.208Z,4.82
2019-05-02T02:31:39.541Z,4.88
2019-05-02T02:34:04.062Z,4.88
2019-05-02T02:36:34.864Z,4.63
2019-05-02T02:39:07.060Z,4.76
2019-05-02T02:41:36.029Z,4.76
2019-05-02T02:44:22.127Z,4.63
2019-05-02T02:46:51.360Z,4.72
2019-05-02T02:49:24.418Z,4.60
2019-05-02T02:51:58.168Z,4.68
2019-05-02T02:54:23.199Z,4.68
2019-05-02T02:56:52.315Z,4.63
2019-05-02T02:59:26.366Z,4.66
2019-05-02T03:01:52.037Z,4.53
2019-05-02T03:04:22.582Z,4.53
2019-05-02T03:06:51.615Z,4.45
2019-05-02T03:09:26.605Z,4.43
2019-05-02T03:12:09.242Z,4.52
2019-05-02T03:14:47.063Z,4.47
2019-05-02T03:17:20.591Z,4.47
2019-05-02T03:19:47.170Z,4.43
2019-05-02T03:22:17.713Z,4.43
2019-05-02T03:24:47.719Z,4.58
2019-05-02T03:27:17.405Z,4.56
2019-05-02T03:29:46.522Z,4.50
2019-05-02T03:32:30.845Z,4.44
2019-05-02T03:34:52.246Z,4.44
2019-05-02T03:37:17.957Z,4.65
2019-05-02T03:39:49.522Z,4.95
2019-05-02T03:42:17.864Z,4.95
2019-05-02T03:44:54.583Z,4.97
2019-05-02T03:47:19.520Z,4.91
2019-05-02T03:49:51.822Z,5.01
2019-05-02T03:52:19.365Z,5.02
2019-05-02T03:54:49.933Z,5.02
2019-05-02T03:57:32.175Z,5.13
2019-05-02T03:59:50.198Z,5.20
2019-05-02T04:02:20.287Z,5.20
2019-05-02T04:04:54.357Z,5.06
2019-05-02T04:07:20.907Z,5.06
2019-05-02T04:09:49.932Z,4.95
2019-05-02T04:12:21.710Z,4.99
2019-05-02T04:14:55.582Z,4.82
2019-05-02T04:17:28.539Z,4.85
2019-05-02T04:19:53.516Z,4.85
2019-05-02T04:22:23.359Z,4.82
2019-05-02T04:24:56.900Z,4.94
2019-05-02T04:27:27.635Z,4.91
2019-05-02T04:29:55.996Z,4.94
2019-05-02T04:32:24.974Z,4.97
2019-05-02T04:34:55.265Z,4.97
2019-05-02T04:37:24.799Z,5.13
2019-05-02T04:39:58.185Z,5.17
2019-05-02T04:42:24.483Z,5.26
2019-05-02T04:45:14.068Z,5.69
2019-05-02T04:47:24.214Z,5.69
2019-05-02T04:49:53.179Z,5.71
2019-05-02T04:52:22.145Z,5.60
2019-05-02T04:54:51.136Z,5.78
2019-05-02T04:57:20.110Z,5.77
2019-05-02T04:59:50.573Z,5.77
2019-05-02T05:02:21.264Z,5.65
2019-05-02T05:04:50.546Z,5.65
2019-05-02T05:07:19.525Z,5.65
2019-05-02T05:09:56.909Z,5.65
2019-05-02T05:12:19.502Z,5.87
2019-05-02T05:14:48.577Z,5.88
2019-05-02T05:17:19.880Z,5.98
2019-05-02T05:19:48.732Z,6.18
2019-05-02T05:22:18.476Z,6.18
2019-05-02T05:24:53.280Z,6.05
2019-05-02T05:27:22.906Z,6.21
2019-05-02T05:29:53.490Z,6.22
2019-05-02T05:32:22.975Z,6.22
2019-05-02T05:34:53.533Z,6.07
2019-05-02T05:37:22.666Z,6.21
2019-05-02T05:39:52.702Z,6.26
2019-05-02T05:42:31.806Z,6.34
2019-05-02T05:44:54.731Z,6.33
2019-05-02T05:47:23.738Z,6.42
2019-05-02T05:49:57.712Z,6.45
2019-05-02T05:52:27.142Z,6.32
2019-05-02T05:54:57.933Z,6.51
2019-05-02T05:57:27.936Z,6.51
2019-05-02T05:59:58.438Z,6.66
2019-05-02T06:02:28.401Z,6.77
2019-05-02T06:05:02.248Z,6.81
2019-05-02T06:07:33.083Z,6.98
2019-05-02T06:10:02.392Z,6.98
2019-05-02T06:12:35.201Z,7.48
2019-05-02T06:15:03.790Z,7.34
2019-05-02T06:17:32.932Z,7.51
2019-05-02T06:20:01.996Z,7.50
2019-05-02T06:22:30.978Z,7.50
2019-05-02T06:25:01.549Z,7.86
2019-05-02T06:27:30.613Z,7.96
2019-05-02T06:30:01.940Z,7.93
2019-05-02T06:32:30.908Z,8.11
2019-05-02T06:34:59.986Z,8.11
2019-05-02T06:37:28.958Z,8.39
2019-05-02T06:39:58.005Z,8.43
2019-05-02T06:42:27.593Z,8.59
2019-05-02T06:44:59.832Z,8.59
2019-05-02T06:47:28.675Z,8.53
2019-05-02T06:50:01.095Z,8.44
2019-05-02T06:52:32.617Z,8.79
2019-05-02T06:55:00.553Z,8.96
2019-05-02T06:57:29.551Z,8.96
2019-05-02T06:59:58.556Z,9.09
2019-05-02T07:02:28.266Z,9.09
2019-05-02T07:04:58.553Z,9.46
2019-05-02T07:07:30.711Z,9.46
2019-05-02T07:09:58.323Z,9.80
2019-05-02T07:12:27.652Z,9.80
2019-05-02T07:15:01.693Z,10.06
2019-05-02T07:17:40.267Z,10.37
2019-05-02T07:20:09.965Z,10.76
2019-05-02T07:22:40.893Z,11.02
2019-05-02T07:25:11.379Z,11.02
2019-05-02T07:27:40.455Z,11.29
2019-05-02T07:30:11.542Z,11.29
2019-05-02T07:32:40.502Z,10.97
2019-05-02T07:35:09.669Z,11.42
2019-05-02T07:37:38.717Z,11.17
2019-05-02T07:40:12.014Z,11.17
2019-05-02T07:42:41.859Z,11.80
2019-05-02T07:45:14.539Z,11.94
2019-05-02T07:47:43.534Z,12.13
2019-05-02T07:50:13.654Z,12.42
2019-05-02T07:52:42.654Z,12.62
2019-05-02T07:55:12.168Z,12.60
2019-05-02T07:57:41.288Z,12.90
2019-05-02T08:00:11.199Z,12.90
2019-05-02T08:02:40.159Z,12.86
2019-05-02T08:05:09.610Z,13.03
2019-05-02T08:07:38.738Z,13.44
2019-05-02T08:10:08.843Z,13.44
2019-05-02T08:12:37.811Z,13.32
2019-05-02T08:15:13.191Z,13.47
2019-05-02T08:17:38.354Z,13.85
2019-05-02T08:20:08.694Z,13.85
2019-05-02T08:22:37.845Z,14.05
2019-05-02T08:25:10.398Z,14.11
2019-05-02T08:28:04.679Z,13.77
2019-05-02T08:30:41.904Z,14.16
2019-05-02T08:33:11.033Z,14.21
2019-05-02T08:35:40.036Z,13.89
2019-05-02T08:38:12.463Z,13.89
2019-05-02T08:40:47.902Z,13.84
2019-05-02T08:43:15.940Z,13.84
2019-05-02T08:45:48.885Z,14.25
2019-05-02T08:51:15.886Z,13.95
2019-05-02T08:54:06.226Z,13.54
2019-05-02T08:56:41.607Z,14.26
2019-05-02T08:59:13.508Z,14.26
2019-05-02T09:01:44.790Z,14.70
2019-05-02T09:04:13.426Z,14.70
2019-05-02T09:06:46.445Z,14.68
2019-05-02T09:13:42.132Z,14.76
2019-05-02T09:15:51.086Z,14.76
2019-05-02T09:24:32.592Z,14.98
2019-05-02T09:27:07.640Z,15.50
2019-05-02T09:29:49.084Z,15.64
2019-05-02T09:32:52.225Z,14.95
2019-05-02T09:35:29.598Z,15.40
2019-05-02T09:45:15.804Z,15.06
2019-05-02T09:56:24.933Z,15.86
2019-05-02T10:24:42.530Z,13.67
2019-05-02T10:27:45.956Z,13.39
2019-05-02T10:34:29.819Z,13.17
2019-05-02T10:37:56.718Z,13.02
2019-05-02T10:41:24.953Z,12.93
2019-05-02T10:58:40.023Z,12.96
2019-05-02T11:43:54.140Z,12.36
2019-05-02T11:46:42.138Z,12.40
2019-05-02T11:49:39.235Z,12.40
2019-05-02T11:55:46.203Z,12.24
2019-05-02T11:58:15.465Z,12.10
2019-05-02T12:00:57.625Z,12.26
2019-05-02T12:03:42.154Z,12.43
2019-05-02T12:07:48.493Z,12.09
2019-05-02T12:32:12.061Z,11.93
2019-05-02T12:39:42.560Z,12.10
2019-05-02T12:41:55.863Z,12.16
2019-05-02T12:53:32.671Z,12.03
2019-05-02T13:05:28.145Z,12.34
2019-05-02T13:08:35.737Z,12.31
2019-05-02T13:13:48.829Z,11.96
2019-05-02T13:16:35.954Z,11.76
2019-05-02T13:22:35.475Z,12.53
2019-05-02T13:25:10.450Z,12.13
2019-05-02T13:27:44.365Z,12.56
2019-05-02T13:44:52.559Z,12.71
2019-05-02T13:46:48.772Z,12.46
2019-05-02T13:51:00.660Z,12.54
2019-05-02T13:53:12.018Z,12.59
2019-05-02T13:56:08.717Z,12.55
2019-05-02T14:01:27.976Z,12.35
2019-05-02T14:04:23.954Z,12.75
2019-05-02T14:06:55.453Z,12.87
2019-05-02T14:09:44.019Z,12.79
2019-05-02T14:12:22.383Z,12.79
2019-05-02T14:14:52.013Z,12.68
2019-05-02T14:17:23.657Z,12.50
2019-05-02T14:20:07.785Z,12.52
2019-05-02T14:28:58.718Z,12.61
2019-05-02T14:31:56.854Z,12.92
2019-05-02T14:50:24.211Z,13.10
2019-05-02T14:52:51.344Z,13.10
2019-05-02T14:56:12.196Z,13.10
2019-05-02T15:01:08.062Z,13.36
2019-05-02T15:03:19.221Z,13.36
2019-05-02T15:06:03.370Z,13.40
2019-05-02T15:08:54.277Z,13.26
2019-05-02T15:12:37.902Z,13.26
2019-05-02T15:18:23.329Z,13.30
2019-05-02T15:20:55.639Z,13.15
2019-05-02T15:29:36.549Z,12.86
2019-05-02T15:33:25.462Z,13.11
2019-05-02T15:36:09.586Z,12.95
2019-05-02T15:38:47.148Z,12.95
2019-05-02T15:43:09.166Z,12.83
2019-05-02T15:45:05.483Z,12.99
2019-05-02T15:47:58.477Z,13.30
2019-05-02T15:51:14.675Z,13.30
2019-05-02T15:54:08.425Z,13.60
2019-05-02T16:00:33.698Z,13.25
2019-05-02T16:04:09.207Z,13.25
2019-05-02T16:06:37.021Z,12.69
2019-05-02T16:09:17.616Z,12.69
2019-05-02T16:16:07.805Z,12.65
2019-05-02T16:18:14.366Z,12.65
2019-05-02T16:21:05.533Z,12.62
2019-05-02T16:23:37.487Z,12.62
2019-05-02T16:26:05.859Z,12.66
2019-05-02T16:28:44.211Z,12.66
2019-05-02T16:31:22.151Z,12.28
2019-05-02T16:34:05.355Z,12.05
2019-05-02T16:37:55.934Z,12.55
2019-05-02T16:43:32.788Z,12.58
2019-05-02T16:46:15.964Z,12.58
2019-05-02T16:48:54.942Z,12.83
2019-05-02T16:51:32.257Z,12.48
2019-05-02T16:57:32.710Z,12.55
2019-05-02T17:00:48.522Z,12.38
2019-05-02T17:06:56.943Z,12.28
2019-05-02T17:10:29.653Z,12.13
2019-05-02T17:13:13.729Z,11.70
2019-05-02T17:16:15.840Z,11.57
2019-05-02T17:19:12.244Z,11.51
2019-05-02T17:22:12.115Z,11.38
2019-05-02T17:25:01.449Z,11.38
2019-05-02T17:27:24.669Z,11.36
2019-05-02T17:29:59.220Z,11.36
2019-05-02T17:32:49.368Z,11.07
2019-05-02T17:38:07.902Z,10.92
2019-05-02T17:40:45.267Z,10.83
2019-05-02T17:43:18.684Z,10.83
2019-05-02T17:45:49.090Z,11.15
2019-05-02T17:48:19.906Z,11.05
2019-05-02T17:51:15.070Z,10.97
2019-05-02T17:53:56.151Z,11.03
2019-05-02T17:56:20.847Z,10.98
2019-05-02T17:58:56.865Z,11.00
2019-05-02T18:01:54.174Z,10.86
2019-05-02T18:04:21.518Z,10.83
2019-05-02T18:06:55.148Z,10.76
2019-05-02T18:09:35.153Z,10.76
2019-05-02T18:12:07.246Z,10.64
2019-05-02T18:14:35.725Z,10.60
2019-05-02T18:17:04.888Z,10.70
2019-05-02T18:19:34.090Z,10.60
2019-05-02T18:22:07.120Z,10.78
2019-05-02T18:24:37.335Z,10.62
2019-05-02T18:27:12.865Z,10.62
2019-05-02T18:29:45.463Z,10.65
2019-05-02T18:32:17.556Z,10.65
2019-05-02T18:34:44.556Z,10.55
2019-05-02T18:37:14.504Z,10.63
2019-05-02T18:39:49.878Z,10.63
2019-05-02T18:42:16.561Z,10.48
2019-05-02T18:44:48.233Z,10.46
2019-05-02T18:47:20.082Z,10.26
2019-05-02T18:49:48.546Z,10.28
2019-05-02T18:52:17.751Z,10.20
2019-05-02T18:54:47.472Z,10.11
2019-05-02T18:57:29.667Z,10.27
2019-05-02T18:59:56.487Z,10.31
2019-05-02T19:02:32.713Z,10.31
2019-05-02T19:04:57.610Z,10.29
2019-05-02T19:07:32.941Z,10.21
2019-05-02T19:09:58.901Z,10.13
2019-05-02T19:12:29.033Z,10.13
2019-05-02T19:15:03.090Z,10.08
2019-05-02T19:17:29.259Z,10.14
2019-05-02T19:19:58.399Z,10.20
2019-05-02T19:22:27.688Z,10.20
2019-05-02T19:25:01.862Z,10.07
2019-05-02T19:27:52.021Z,10.19
2019-05-02T19:30:27.201Z,10.19
2019-05-02T19:32:57.766Z,9.99
2019-05-02T19:35:25.967Z,9.99
2019-05-02T19:37:55.272Z,10.24
2019-05-02T19:40:28.149Z,10.00
2019-05-02T19:42:57.367Z,9.90
2019-05-02T19:45:30.125Z,9.90
2019-05-02T19:48:02.678Z,9.94
2019-05-02T19:50:41.710Z,9.93
2019-05-02T19:53:15.222Z,9.79
2019-05-02T19:55:39.318Z,9.79
2019-05-02T19:58:10.323Z,9.85
2019-05-02T20:18:52.778Z,9.46
2019-05-02T20:22:40.995Z,9.39
2019-05-02T21:09:26.160Z,9.09
2019-05-02T22:09:42.269Z,8.89
2019-05-02T22:20:25.630Z,8.97
2019-05-02T22:26:10.125Z,8.93
